sensor_id;sensor_type;location;lat;lon;timestamp;pressure;altitude;pressure_sealevel;temperature;humidity
45621;BME280;31345;51.522;10.702;2024-02-14T00:01:07;99323.94;;;3.06;100.00
45621;BME280;31345;51.522;10.702;2024-02-14T00:03:35;99326.88;;;2.95;100.00
45621;BME280;31345;51.522;10.702;2024-02-14T00:06:04;99327.47;;;3.03;100.00
45621;BME280;31345;51.522;10.702;2024-02-14T00:08:37;99315.72;;;2.95;100.00
45621;BME280;31345;51.522;10.702;2024-02-14T00:11:11;99322.00;;;2.86;100.00
45621;BME280;31345;51.522;10.702;2024-02-14T00:13:40;99315.09;;;2.86;100.00
45621;BME280;31345;51.522;10.702;2024-02-14T00:16:08;99313.25;;;2.90;100.00
45621;BME280;31345;51.522;10.702;2024-02-14T00:18:40;99310.69;;;2.90;100.00
45621;BME280;31345;51.522;10.702;2024-02-14T00:21:08;99297.91;;;2.85;100.00
45621;BME280;31345;51.522;10.702;2024-02-14T00:23:36;99300.22;;;2.95;100.00
45621;BME280;31345;51.522;10.702;2024-02-14T00:26:03;99303.59;;;2.97;100.00
45621;BME280;31345;51.522;10.702;2024-02-14T00:28:33;99301.84;;;2.69;100.00
45621;BME280;31345;51.522;10.702;2024-02-14T00:31:00;99304.94;;;2.80;100.00
45621;BME280;31345;51.522;10.702;2024-02-14T00:33:33;99297.47;;;2.99;100.00
45621;BME280;31345;51.522;10.702;2024-02-14T00:36:06;99295.88;;;2.95;100.00
45621;BME280;31345;51.522;10.702;2024-02-14T00:38:33;99295.41;;;2.82;100.00
45621;BME280;31345;51.522;10.702;2024-02-14T00:41:06;99283.78;;;2.97;100.00
45621;BME280;31345;51.522;10.702;2024-02-14T00:43:35;99290.44;;;3.04;100.00
45621;BME280;31345;51.522;10.702;2024-02-14T00:46:03;99296.03;;;2.90;100.00
45621;BME280;31345;51.522;10.702;2024-02-14T00:48:36;99288.72;;;3.03;100.00
45621;BME280;31345;51.522;10.702;2024-02-14T00:51:03;99295.91;;;2.94;100.00
45621;BME280;31345;51.522;10.702;2024-02-14T00:53:31;99292.47;;;2.95;100.00
45621;BME280;31345;51.522;10.702;2024-02-14T00:56:05;99295.13;;;2.91;100.00
45621;BME280;31345;51.522;10.702;2024-02-14T00:58:39;99301.94;;;2.94;100.00
45621;BME280;31345;51.522;10.702;2024-02-14T01:01:12;99304.00;;;2.83;100.00
45621;BME280;31345;51.522;10.702;2024-02-14T01:03:45;99301.94;;;2.94;100.00
45621;BME280;31345;51.522;10.702;2024-02-14T01:06:12;99294.94;;;2.98;100.00
45621;BME280;31345;51.522;10.702;2024-02-14T01:08:41;99300.53;;;2.55;100.00
45621;BME280;31345;51.522;10.702;2024-02-14T01:11:14;99289.47;;;2.80;100.00
45621;BME280;31345;51.522;10.702;2024-02-14T01:13:43;99296.22;;;2.84;100.00
45621;BME280;31345;51.522;10.702;2024-02-14T01:16:15;99287.81;;;2.77;100.00
45621;BME280;31345;51.522;10.702;2024-02-14T01:18:43;99291.22;;;2.78;100.00
45621;BME280;31345;51.522;10.702;2024-02-14T01:21:16;99290.09;;;2.87;100.00
45621;BME280;31345;51.522;10.702;2024-02-14T01:23:48;99295.78;;;2.70;100.00
45621;BME280;31345;51.522;10.702;2024-02-14T01:26:16;99282.63;;;2.79;100.00
45621;BME280;31345;51.522;10.702;2024-02-14T01:28:45;99282.03;;;2.69;100.00
45621;BME280;31345;51.522;10.702;2024-02-14T01:31:13;99281.56;;;2.56;100.00
45621;BME280;31345;51.522;10.702;2024-02-14T01:33:40;99276.03;;;2.69;100.00
45621;BME280;31345;51.522;10.702;2024-02-14T01:36:13;99269.19;;;2.68;100.00
45621;BME280;31345;51.522;10.702;2024-02-14T01:38:42;99263.81;;;2.74;100.00
45621;BME280;31345;51.522;10.702;2024-02-14T01:41:09;99270.16;;;2.63;100.00
45621;BME280;31345;51.522;10.702;2024-02-14T01:43:37;99269.88;;;2.73;100.00
45621;BME280;31345;51.522;10.702;2024-02-14T01:46:07;99259.13;;;2.87;100.00
45621;BME280;31345;51.522;10.702;2024-02-14T01:48:41;99266.31;;;2.77;100.00
45621;BME280;31345;51.522;10.702;2024-02-14T01:51:16;99263.56;;;2.83;100.00
45621;BME280;31345;51.522;10.702;2024-02-14T01:53:45;99261.56;;;2.91;100.00
45621;BME280;31345;51.522;10.702;2024-02-14T01:56:18;99265.06;;;2.90;100.00
45621;BME280;31345;51.522;10.702;2024-02-14T01:58:46;99256.59;;;2.85;100.00
45621;BME280;31345;51.522;10.702;2024-02-14T02:01:15;99253.50;;;2.74;100.00
45621;BME280;31345;51.522;10.702;2024-02-14T02:03:49;99250.69;;;2.82;100.00
45621;BME280;31345;51.522;10.702;2024-02-14T02:06:17;99252.75;;;2.70;100.00
45621;BME280;31345;51.522;10.702;2024-02-14T02:08:45;99246.56;;;2.76;100.00
45621;BME280;31345;51.522;10.702;2024-02-14T02:11:17;99238.56;;;2.84;100.00
45621;BME280;31345;51.522;10.702;2024-02-14T02:13:50;99239.22;;;2.90;100.00
45621;BME280;31345;51.522;10.702;2024-02-14T02:16:24;99234.75;;;2.96;100.00
45621;BME280;31345;51.522;10.702;2024-02-14T02:18:52;99229.59;;;2.96;100.00
45621;BME280;31345;51.522;10.702;2024-02-14T02:21:20;99225.97;;;3.01;100.00
45621;BME280;31345;51.522;10.702;2024-02-14T02:23:56;99221.03;;;2.94;100.00
45621;BME280;31345;51.522;10.702;2024-02-14T02:26:29;99226.25;;;2.92;100.00
45621;BME280;31345;51.522;10.702;2024-02-14T02:29:01;99228.31;;;3.08;100.00
45621;BME280;31345;51.522;10.702;2024-02-14T02:31:34;99222.91;;;3.15;100.00
45621;BME280;31345;51.522;10.702;2024-02-14T02:34:02;99216.72;;;3.21;100.00
45621;BME280;31345;51.522;10.702;2024-02-14T02:36:34;99216.72;;;3.21;100.00
45621;BME280;31345;51.522;10.702;2024-02-14T02:39:08;99216.44;;;3.29;100.00
45621;BME280;31345;51.522;10.702;2024-02-14T02:41:41;99214.47;;;3.36;100.00
45621;BME280;31345;51.522;10.702;2024-02-14T02:44:14;99214.47;;;3.36;100.00
45621;BME280;31345;51.522;10.702;2024-02-14T02:46:46;99208.44;;;3.37;100.00
45621;BME280;31345;51.522;10.702;2024-02-14T02:49:14;99210.03;;;3.41;100.00
45621;BME280;31345;51.522;10.702;2024-02-14T02:51:47;99211.41;;;3.50;100.00
45621;BME280;31345;51.522;10.702;2024-02-14T02:54:21;99209.25;;;3.63;100.00
45621;BME280;31345;51.522;10.702;2024-02-14T02:56:55;99208.19;;;3.68;100.00
45621;BME280;31345;51.522;10.702;2024-02-14T02:59:27;99200.53;;;3.65;100.00
45621;BME280;31345;51.522;10.702;2024-02-14T03:02:01;99202.25;;;3.66;100.00
45621;BME280;31345;51.522;10.702;2024-02-14T03:04:28;99206.41;;;3.71;100.00
45621;BME280;31345;51.522;10.702;2024-02-14T03:07:03;99199.28;;;3.77;100.00
45621;BME280;31345;51.522;10.702;2024-02-14T03:09:34;99188.59;;;3.87;100.00
45621;BME280;31345;51.522;10.702;2024-02-14T03:12:02;99189.50;;;3.86;100.00
45621;BME280;31345;51.522;10.702;2024-02-14T03:14:30;99186.97;;;3.84;100.00
45621;BME280;31345;51.522;10.702;2024-02-14T03:16:59;99193.69;;;3.88;100.00
45621;BME280;31345;51.522;10.702;2024-02-14T03:19:32;99191.91;;;3.90;100.00
45621;BME280;31345;51.522;10.702;2024-02-14T03:22:05;99191.63;;;3.98;100.00
45621;BME280;31345;51.522;10.702;2024-02-14T03:24:36;99191.63;;;3.98;100.00
45621;BME280;31345;51.522;10.702;2024-02-14T03:27:04;99188.19;;;3.98;100.00
45621;BME280;31345;51.522;10.702;2024-02-14T03:29:37;99180.63;;;3.93;100.00
45621;BME280;31345;51.522;10.702;2024-02-14T03:32:10;99180.41;;;3.98;100.00
45621;BME280;31345;51.522;10.702;2024-02-14T03:34:37;99174.13;;;4.05;100.00
45621;BME280;31345;51.522;10.702;2024-02-14T03:37:05;99174.91;;;4.07;100.00
45621;BME280;31345;51.522;10.702;2024-02-14T03:39:39;99164.28;;;4.15;100.00
45621;BME280;31345;51.522;10.702;2024-02-14T03:42:07;99160.81;;;4.14;100.00
45621;BME280;31345;51.522;10.702;2024-02-14T03:44:35;99161.03;;;4.10;100.00
45621;BME280;31345;51.522;10.702;2024-02-14T03:47:04;99158.06;;;4.19;100.00
45621;BME280;31345;51.522;10.702;2024-02-14T03:49:37;99153.81;;;4.18;100.00
45621;BME280;31345;51.522;10.702;2024-02-14T03:52:09;99150.63;;;4.11;100.00
45621;BME280;31345;51.522;10.702;2024-02-14T03:54:39;99151.31;;;4.15;100.00
45621;BME280;31345;51.522;10.702;2024-02-14T03:57:12;99140.69;;;4.23;100.00
45621;BME280;31345;51.522;10.702;2024-02-14T03:59:46;99152.53;;;4.28;100.00
45621;BME280;31345;51.522;10.702;2024-02-14T04:02:19;99155.44;;;4.20;100.00
45621;BME280;31345;51.522;10.702;2024-02-14T04:04:46;99143.94;;;4.28;100.00
45621;BME280;31345;51.522;10.702;2024-02-14T04:07:14;99143.13;;;4.26;100.00
45621;BME280;31345;51.522;10.702;2024-02-14T04:09:48;99140.00;;;4.17;100.00
45621;BME280;31345;51.522;10.702;2024-02-14T04:12:17;99138.09;;;4.23;100.00
45621;BME280;31345;51.522;10.702;2024-02-14T04:14:45;99139.03;;;4.20;100.00
45621;BME280;31345;51.522;10.702;2024-02-14T04:17:12;99131.44;;;4.17;100.00
45621;BME280;31345;51.522;10.702;2024-02-14T04:19:45;99147.97;;;4.13;100.00
45621;BME280;31345;51.522;10.702;2024-02-14T04:22:13;99145.88;;;4.23;100.00
45621;BME280;31345;51.522;10.702;2024-02-14T04:24:47;99147.50;;;4.25;100.00
45621;BME280;31345;51.522;10.702;2024-02-14T04:27:20;99147.56;;;4.24;100.00
45621;BME280;31345;51.522;10.702;2024-02-14T04:29:47;99144.22;;;4.20;100.00
45621;BME280;31345;51.522;10.702;2024-02-14T04:32:20;99149.03;;;4.07;100.00
45621;BME280;31345;51.522;10.702;2024-02-14T04:34:53;99147.53;;;4.01;100.00
45621;BME280;31345;51.522;10.702;2024-02-14T04:37:21;99142.53;;;4.19;100.00
45621;BME280;31345;51.522;10.702;2024-02-14T04:39:55;99136.13;;;4.29;100.00
45621;BME280;31345;51.522;10.702;2024-02-14T04:42:22;99136.13;;;4.29;100.00
45621;BME280;31345;51.522;10.702;2024-02-14T04:44:50;99132.38;;;4.37;100.00
45621;BME280;31345;51.522;10.702;2024-02-14T04:47:23;99125.09;;;4.24;100.00
45621;BME280;31345;51.522;10.702;2024-02-14T04:49:50;99130.25;;;4.24;100.00
45621;BME280;31345;51.522;10.702;2024-02-14T04:52:24;99135.81;;;4.37;100.00
45621;BME280;31345;51.522;10.702;2024-02-14T04:54:51;99136.53;;;4.41;100.00
45621;BME280;31345;51.522;10.702;2024-02-14T04:57:20;99134.78;;;4.41;100.00
45621;BME280;31345;51.522;10.702;2024-02-14T04:59:53;99132.97;;;4.43;100.00
45621;BME280;31345;51.522;10.702;2024-02-14T05:02:26;99126.09;;;4.42;100.00
45621;BME280;31345;51.522;10.702;2024-02-14T05:04:59;99120.28;;;4.37;100.00
45621;BME280;31345;51.522;10.702;2024-02-14T05:07:28;99114.97;;;4.40;100.00
45621;BME280;31345;51.522;10.702;2024-02-14T05:10:02;99108.78;;;4.44;100.00
45621;BME280;31345;51.522;10.702;2024-02-14T05:12:31;99113.84;;;4.47;100.00
45621;BME280;31345;51.522;10.702;2024-02-14T05:15:05;99128.47;;;4.49;100.00
45621;BME280;31345;51.522;10.702;2024-02-14T05:17:33;99119.63;;;4.32;100.00
45621;BME280;31345;51.522;10.702;2024-02-14T05:20:06;99120.81;;;4.45;100.00
45621;BME280;31345;51.522;10.702;2024-02-14T05:22:36;99115.84;;;4.41;100.00
45621;BME280;31345;51.522;10.702;2024-02-14T05:25:09;99112.06;;;4.48;100.00
45621;BME280;31345;51.522;10.702;2024-02-14T05:27:43;99111.13;;;4.51;100.00
45621;BME280;31345;51.522;10.702;2024-02-14T05:30:12;99113.88;;;4.46;100.00
45621;BME280;31345;51.522;10.702;2024-02-14T05:32:45;99108.66;;;4.47;100.00
45621;BME280;31345;51.522;10.702;2024-02-14T05:35:13;99098.31;;;4.47;100.00
45621;BME280;31345;51.522;10.702;2024-02-14T05:37:41;99099.69;;;4.56;100.00
45621;BME280;31345;51.522;10.702;2024-02-14T05:40:14;99107.28;;;4.59;100.00
45621;BME280;31345;51.522;10.702;2024-02-14T05:42:48;99114.56;;;4.72;100.00
45621;BME280;31345;51.522;10.702;2024-02-14T05:45:20;99114.50;;;4.73;100.00
45621;BME280;31345;51.522;10.702;2024-02-14T05:47:48;99117.34;;;4.67;100.00
45621;BME280;31345;51.522;10.702;2024-02-14T05:50:21;99113.72;;;4.71;100.00
45621;BME280;31345;51.522;10.702;2024-02-14T05:52:48;99108.75;;;4.88;100.00
45621;BME280;31345;51.522;10.702;2024-02-14T05:55:16;99114.25;;;4.80;100.00
45621;BME280;31345;51.522;10.702;2024-02-14T05:57:50;99115.88;;;4.82;100.00
45621;BME280;31345;51.522;10.702;2024-02-14T06:00:23;99116.56;;;4.86;100.00
45621;BME280;31345;51.522;10.702;2024-02-14T06:02:51;99124.69;;;4.78;100.00
45621;BME280;31345;51.522;10.702;2024-02-14T06:05:19;99117.75;;;4.79;100.00
45621;BME280;31345;51.522;10.702;2024-02-14T06:07:46;99115.94;;;4.81;100.00
45621;BME280;31345;51.522;10.702;2024-02-14T06:10:19;99128.88;;;4.81;100.00
45621;BME280;31345;51.522;10.702;2024-02-14T06:12:53;99126.81;;;4.89;100.00
45621;BME280;31345;51.522;10.702;2024-02-14T06:15:21;99124.09;;;4.92;100.00
45621;BME280;31345;51.522;10.702;2024-02-14T06:17:54;99127.16;;;4.81;100.00
45621;BME280;31345;51.522;10.702;2024-02-14T06:20:26;99124.16;;;4.91;100.00
45621;BME280;31345;51.522;10.702;2024-02-14T06:22:54;99126.88;;;4.88;100.00
45621;BME280;31345;51.522;10.702;2024-02-14T06:25:22;99120.53;;;4.95;100.00
45621;BME280;31345;51.522;10.702;2024-02-14T06:27:56;99118.47;;;5.03;100.00
45621;BME280;31345;51.522;10.702;2024-02-14T06:30:23;99117.22;;;5.12;100.00
45621;BME280;31345;51.522;10.702;2024-02-14T06:32:56;99131.28;;;5.27;100.00
45621;BME280;31345;51.522;10.702;2024-02-14T06:35:32;99133.94;;;5.26;100.00
45621;BME280;31345;51.522;10.702;2024-02-14T06:38:04;99125.16;;;5.28;100.00
45621;BME280;31345;51.522;10.702;2024-02-14T06:40:37;99122.19;;;5.37;100.00
45621;BME280;31345;51.522;10.702;2024-02-14T06:43:08;99119.47;;;5.41;100.00
45621;BME280;31345;51.522;10.702;2024-02-14T06:45:40;99123.25;;;5.33;100.00
45621;BME280;31345;51.522;10.702;2024-02-14T06:48:08;99120.31;;;5.41;100.00
45621;BME280;31345;51.522;10.702;2024-02-14T06:50:36;99119.84;;;5.31;100.00
45621;BME280;31345;51.522;10.702;2024-02-14T06:53:08;99118.50;;;5.43;100.00
45621;BME280;31345;51.522;10.702;2024-02-14T06:55:36;99123.31;;;5.32;100.00
45621;BME280;31345;51.522;10.702;2024-02-14T06:58:04;99127.81;;;5.47;100.00
45621;BME280;31345;51.522;10.702;2024-02-14T07:00:38;99130.03;;;5.36;100.00
45621;BME280;31345;51.522;10.702;2024-02-14T07:03:06;99131.25;;;5.48;100.00
45621;BME280;31345;51.522;10.702;2024-02-14T07:05:33;99135.28;;;5.34;100.00
45621;BME280;31345;51.522;10.702;2024-02-14T07:08:06;99137.16;;;5.52;100.00
45621;BME280;31345;51.522;10.702;2024-02-14T07:10:39;99138.19;;;5.47;100.00
45621;BME280;31345;51.522;10.702;2024-02-14T07:13:07;99133.28;;;5.60;100.00
45621;BME280;31345;51.522;10.702;2024-02-14T07:15:34;99127.22;;;5.61;100.00
45621;BME280;31345;51.522;10.702;2024-02-14T07:18:08;99138.34;;;5.63;100.00
45621;BME280;31345;51.522;10.702;2024-02-14T07:20:41;99136.09;;;5.75;100.00
45621;BME280;31345;51.522;10.702;2024-02-14T07:23:10;99137.94;;;5.73;100.00
45621;BME280;31345;51.522;10.702;2024-02-14T07:25:42;99141.16;;;5.78;100.00
45621;BME280;31345;51.522;10.702;2024-02-14T07:28:11;99150.69;;;5.78;100.00
45621;BME280;31345;51.522;10.702;2024-02-14T07:30:38;99145.16;;;5.85;100.00
45621;BME280;31345;51.522;10.702;2024-02-14T07:33:12;99152.94;;;6.05;100.00
45621;BME280;31345;51.522;10.702;2024-02-14T07:35:40;99149.72;;;5.99;100.00
45621;BME280;31345;51.522;10.702;2024-02-14T07:38:09;99156.53;;;6.02;100.00
45621;BME280;31345;51.522;10.702;2024-02-14T07:40:41;99152.31;;;5.99;100.00
45621;BME280;31345;51.522;10.702;2024-02-14T07:43:14;99145.47;;;6.35;100.00
45621;BME280;31345;51.522;10.702;2024-02-14T07:45:42;99153.88;;;6.40;100.00
45621;BME280;31345;51.522;10.702;2024-02-14T07:48:09;99141.00;;;6.57;100.00
45621;BME280;31345;51.522;10.702;2024-02-14T07:50:38;99140.13;;;6.75;100.00
45621;BME280;31345;51.522;10.702;2024-02-14T07:53:11;99149.97;;;6.86;100.00
45621;BME280;31345;51.522;10.702;2024-02-14T07:55:39;99140.56;;;7.01;100.00
45621;BME280;31345;51.522;10.702;2024-02-14T07:58:11;99132.19;;;7.12;100.00
45621;BME280;31345;51.522;10.702;2024-02-14T08:00:39;99135.59;;;7.14;100.00
45621;BME280;31345;51.522;10.702;2024-02-14T08:03:12;99133.34;;;7.24;100.00
45621;BME280;31345;51.522;10.702;2024-02-14T08:05:42;99134.38;;;7.38;100.00
45621;BME280;31345;51.522;10.702;2024-02-14T08:08:09;99133.16;;;7.45;100.00
45621;BME280;31345;51.522;10.702;2024-02-14T08:10:37;99133.56;;;7.37;100.00
45621;BME280;31345;51.522;10.702;2024-02-14T08:13:05;99132.22;;;7.46;100.00
45621;BME280;31345;51.522;10.702;2024-02-14T08:15:37;99119.53;;;7.57;100.00
45621;BME280;31345;51.522;10.702;2024-02-14T08:18:05;99127.09;;;7.62;100.00
45621;BME280;31345;51.522;10.702;2024-02-14T08:20:33;99124.34;;;7.81;100.00
45621;BME280;31345;51.522;10.702;2024-02-14T08:23:02;99134.16;;;7.92;100.00
45621;BME280;31345;51.522;10.702;2024-02-14T08:25:35;99140.66;;;8.01;100.00
45621;BME280;31345;51.522;10.702;2024-02-14T08:28:08;99140.81;;;7.98;100.00
45621;BME280;31345;51.522;10.702;2024-02-14T08:30:41;99132.09;;;7.99;100.00
45621;BME280;31345;51.522;10.702;2024-02-14T08:33:14;99137.66;;;8.09;100.00
45621;BME280;31345;51.522;10.702;2024-02-14T08:35:42;99134.16;;;7.92;100.00
45621;BME280;31345;51.522;10.702;2024-02-14T08:38:16;99144.94;;;8.02;100.00
45621;BME280;31345;51.522;10.702;2024-02-14T08:40:44;99143.50;;;8.13;100.00
45621;BME280;31345;51.522;10.702;2024-02-14T08:43:11;99147.03;;;7.79;100.00
45621;BME280;31345;51.522;10.702;2024-02-14T08:45:39;99149.38;;;7.84;100.00
45621;BME280;31345;51.522;10.702;2024-02-14T08:48:07;99145.09;;;7.83;100.00
45621;BME280;31345;51.522;10.702;2024-02-14T08:50:34;99154.50;;;7.86;100.00
45621;BME280;31345;51.522;10.702;2024-02-14T08:53:02;99150.47;;;7.96;100.00
45621;BME280;31345;51.522;10.702;2024-02-14T08:55:31;99151.63;;;8.06;100.00
45621;BME280;31345;51.522;10.702;2024-02-14T08:58:06;99156.19;;;8.03;100.00
45621;BME280;31345;51.522;10.702;2024-02-14T09:00:36;99153.50;;;8.04;100.00
45621;BME280;31345;51.522;10.702;2024-02-14T09:03:10;99162.31;;;8.02;100.00
45621;BME280;31345;51.522;10.702;2024-02-14T09:05:42;99157.97;;;8.18;100.00
45621;BME280;31345;51.522;10.702;2024-02-14T09:08:15;99155.84;;;8.25;100.00
45621;BME280;31345;51.522;10.702;2024-02-14T09:10:49;99160.38;;;8.05;100.00
45621;BME280;31345;51.522;10.702;2024-02-14T09:13:22;99163.00;;;8.05;100.00
45621;BME280;31345;51.522;10.702;2024-02-14T09:15:55;99163.16;;;8.18;100.00
45621;BME280;31345;51.522;10.702;2024-02-14T09:18:23;99152.50;;;8.23;100.00
45621;BME280;31345;51.522;10.702;2024-02-14T09:20:56;99156.88;;;8.23;100.00
45621;BME280;31345;51.522;10.702;2024-02-14T09:23:29;99153.31;;;8.24;100.00
45621;BME280;31345;51.522;10.702;2024-02-14T09:26:04;99155.19;;;8.21;100.00
45621;BME280;31345;51.522;10.702;2024-02-14T09:28:40;99161.47;;;8.01;100.00
45621;BME280;31345;51.522;10.702;2024-02-14T09:31:07;99168.44;;;8.01;100.00
45621;BME280;31345;51.522;10.702;2024-02-14T09:33:37;99164.25;;;8.14;100.00
45621;BME280;31345;51.522;10.702;2024-02-14T09:36:05;99170.47;;;8.12;100.00
45621;BME280;31345;51.522;10.702;2024-02-14T09:38:38;99161.75;;;8.13;100.00
45621;BME280;31345;51.522;10.702;2024-02-14T09:41:15;99163.69;;;8.09;100.00
45621;BME280;31345;51.522;10.702;2024-02-14T09:43:46;99173.81;;;8.14;100.00
45621;BME280;31345;51.522;10.702;2024-02-14T09:46:14;99178.38;;;8.26;100.00
45621;BME280;31345;51.522;10.702;2024-02-14T09:48:47;99173.84;;;8.30;100.00
45621;BME280;31345;51.522;10.702;2024-02-14T09:51:21;99178.28;;;8.44;100.00
45621;BME280;31345;51.522;10.702;2024-02-14T09:53:50;99174.16;;;8.40;100.00
45621;BME280;31345;51.522;10.702;2024-02-14T09:56:22;99178.13;;;8.31;100.00
45621;BME280;31345;51.522;10.702;2024-02-14T09:58:50;99182.00;;;8.40;100.00
45621;BME280;31345;51.522;10.702;2024-02-14T10:01:27;99179.53;;;8.37;100.00
45621;BME280;31345;51.522;10.702;2024-02-14T10:03:55;99185.41;;;8.40;100.00
45621;BME280;31345;51.522;10.702;2024-02-14T10:06:23;99185.81;;;8.49;100.00
45621;BME280;31345;51.522;10.702;2024-02-14T10:08:51;99187.09;;;8.57;100.00
45621;BME280;31345;51.522;10.702;2024-02-14T10:11:25;99182.44;;;8.63;100.00
45621;BME280;31345;51.522;10.702;2024-02-14T10:13:53;99176.66;;;8.57;100.00
45621;BME280;31345;51.522;10.702;2024-02-14T10:16:26;99183.38;;;8.62;100.00
45621;BME280;31345;51.522;10.702;2024-02-14T10:18:59;99180.34;;;8.69;100.00
45621;BME280;31345;51.522;10.702;2024-02-14T10:21:32;99177.66;;;8.71;100.00
45621;BME280;31345;51.522;10.702;2024-02-14T10:23:59;99185.78;;;8.81;100.00
45621;BME280;31345;51.522;10.702;2024-02-14T10:26:29;99184.69;;;8.85;100.00
45621;BME280;31345;51.522;10.702;2024-02-14T10:28:57;99186.09;;;8.91;100.00
45621;BME280;31345;51.522;10.702;2024-02-14T10:31:30;99186.00;;;8.92;100.00
45621;BME280;31345;51.522;10.702;2024-02-14T10:34:04;99183.63;;;9.04;100.00
45621;BME280;31345;51.522;10.702;2024-02-14T10:36:33;99197.28;;;8.93;100.00
45621;BME280;31345;51.522;10.702;2024-02-14T10:39:06;99190.19;;;8.95;100.00
45621;BME280;31345;51.522;10.702;2024-02-14T10:41:42;99199.56;;;8.99;100.00
45621;BME280;31345;51.522;10.702;2024-02-14T10:44:15;99189.00;;;9.01;100.00
45621;BME280;31345;51.522;10.702;2024-02-14T10:46:48;99196.03;;;9.15;100.00
45621;BME280;31345;51.522;10.702;2024-02-14T10:49:20;99195.13;;;9.16;100.00
45621;BME280;31345;51.522;10.702;2024-02-14T10:51:48;99184.41;;;9.20;100.00
45621;BME280;31345;51.522;10.702;2024-02-14T10:54:19;99194.00;;;9.20;100.00
45621;BME280;31345;51.522;10.702;2024-02-14T10:56:58;99187.13;;;9.33;100.00
45621;BME280;31345;51.522;10.702;2024-02-14T10:59:26;99186.56;;;9.28;100.00
45621;BME280;31345;51.522;10.702;2024-02-14T11:01:54;99182.94;;;9.31;100.00
45621;BME280;31345;51.522;10.702;2024-02-14T11:04:28;99185.00;;;9.26;100.00
45621;BME280;31345;51.522;10.702;2024-02-14T11:06:58;99183.25;;;9.55;100.00
45621;BME280;31345;51.522;10.702;2024-02-14T11:09:31;99166.84;;;9.68;100.00
45621;BME280;31345;51.522;10.702;2024-02-14T11:12:08;99175.88;;;9.76;100.00
45621;BME280;31345;51.522;10.702;2024-02-14T11:14:42;99171.75;;;10.01;100.00
45621;BME280;31345;51.522;10.702;2024-02-14T11:17:19;99180.25;;;10.20;100.00
45621;BME280;31345;51.522;10.702;2024-02-14T11:19:57;99181.25;;;10.32;100.00
45621;BME280;31345;51.522;10.702;2024-02-14T11:22:25;99179.91;;;10.39;99.53
45621;BME280;31345;51.522;10.702;2024-02-14T11:24:53;99178.34;;;10.64;100.00
45621;BME280;31345;51.522;10.702;2024-02-14T11:27:22;99186.72;;;10.42;99.16
45621;BME280;31345;51.522;10.702;2024-02-14T11:29:53;99186.19;;;10.36;98.72
45621;BME280;31345;51.522;10.702;2024-02-14T11:32:27;99190.31;;;10.26;99.54
45621;BME280;31345;51.522;10.702;2024-02-14T11:34:55;99186.88;;;10.11;100.00
45621;BME280;31345;51.522;10.702;2024-02-14T11:37:27;99191.91;;;9.99;100.00
45621;BME280;31345;51.522;10.702;2024-02-14T11:39:55;99194.50;;;9.85;100.00
45621;BME280;31345;51.522;10.702;2024-02-14T11:42:26;99190.13;;;9.85;100.00
45621;BME280;31345;51.522;10.702;2024-02-14T11:44:53;99199.28;;;9.78;100.00
45621;BME280;31345;51.522;10.702;2024-02-14T11:47:27;99194.63;;;9.69;100.00
45621;BME280;31345;51.522;10.702;2024-02-14T11:49:55;99198.53;;;9.61;100.00
45621;BME280;31345;51.522;10.702;2024-02-14T11:52:25;99205.34;;;9.79;100.00
45621;BME280;31345;51.522;10.702;2024-02-14T11:54:58;99205.63;;;9.88;100.00
45621;BME280;31345;51.522;10.702;2024-02-14T11:57:27;99208.97;;;9.91;100.00
45621;BME280;31345;51.522;10.702;2024-02-14T11:59:55;99212.91;;;9.83;100.00
45621;BME280;31345;51.522;10.702;2024-02-14T12:02:30;99222.88;;;9.62;100.00
45621;BME280;31345;51.522;10.702;2024-02-14T12:04:58;99226.91;;;9.68;100.00
45621;BME280;31345;51.522;10.702;2024-02-14T12:07:31;99232.84;;;9.70;100.00
45621;BME280;31345;51.522;10.702;2024-02-14T12:10:04;99223.16;;;9.86;100.00
45621;BME280;31345;51.522;10.702;2024-02-14T12:12:34;99228.00;;;9.78;100.00
45621;BME280;31345;51.522;10.702;2024-02-14T12:15:09;99235.84;;;9.63;100.00
45621;BME280;31345;51.522;10.702;2024-02-14T12:17:42;99229.94;;;9.60;100.00
45621;BME280;31345;51.522;10.702;2024-02-14T12:20:11;99239.75;;;9.56;100.00
45621;BME280;31345;51.522;10.702;2024-02-14T12:22:49;99245.91;;;9.55;100.00
45621;BME280;31345;51.522;10.702;2024-02-14T12:25:17;99247.84;;;9.52;100.00
45621;BME280;31345;51.522;10.702;2024-02-14T12:27:51;99247.41;;;9.59;100.00
45621;BME280;31345;51.522;10.702;2024-02-14T12:30:42;99249.06;;;9.60;100.00
45621;BME280;31345;51.522;10.702;2024-02-14T12:33:16;99241.44;;;9.72;100.00
45621;BME280;31345;51.522;10.702;2024-02-14T12:35:49;99242.34;;;9.71;100.00
45621;BME280;31345;51.522;10.702;2024-02-14T12:38:22;99243.38;;;9.68;100.00
45621;BME280;31345;51.522;10.702;2024-02-14T12:40:50;99246.06;;;9.67;100.00
45621;BME280;31345;51.522;10.702;2024-02-14T12:43:26;99248.91;;;9.63;100.00
45621;BME280;31345;51.522;10.702;2024-02-14T12:45:59;99244.44;;;9.80;100.00
45621;BME280;31345;51.522;10.702;2024-02-14T12:48:33;99241.06;;;9.93;100.00
45621;BME280;31345;51.522;10.702;2024-02-14T12:51:05;99241.06;;;10.22;100.00
45621;BME280;31345;51.522;10.702;2024-02-14T12:53:38;99238.59;;;10.06;100.00
45621;BME280;31345;51.522;10.702;2024-02-14T12:56:07;99234.44;;;10.16;100.00
45621;BME280;31345;51.522;10.702;2024-02-14T12:58:36;99234.09;;;10.22;100.00
45621;BME280;31345;51.522;10.702;2024-02-14T13:01:04;99232.59;;;10.18;100.00
45621;BME280;31345;51.522;10.702;2024-02-14T13:03:38;99233.16;;;10.23;100.00
45621;BME280;31345;51.522;10.702;2024-02-14T13:06:05;99234.38;;;10.18;100.00
45621;BME280;31345;51.522;10.702;2024-02-14T13:08:38;99242.66;;;9.95;100.00